Time;durP1;ratioP1;P1;durP2;ratioP2;P2;SDS_P1;SDS_P2;PMS_P1;PMS_P2;Temp;Humidity;BMP_temperature;BMP_pressure;BME280_temperature;BME280_humidity;BME280_pressure;Samples;Min_cycle;Max_cycle;Signal;HPM_P1;HPM_P2
2022/07/08 04:44:34;;;;;;;4.93;3.65;;;;;;;16.33;78.52;100497.75;6667072;26;128471;-87
2022/07/08 04:47:37;;;;;;;4.18;3.55;;;;;;;17.31;81.58;100501.31;6698361;26;34280;-87
2022/07/08 04:50:40;;;;;;;3.47;3.22;;;;;;;18.69;69.00;100508.44;6698174;26;34249;-88
2022/07/08 04:53:43;;;;;;;3.62;3.00;;;;;;;19.08;69.77;100508.84;6692704;26;34127;-87
2022/07/08 04:56:45;;;;;;;4.57;3.22;;;;;;;19.28;67.71;100513.50;6698126;26;33769;-87
2022/07/08 04:59:48;;;;;;;3.20;2.87;;;;;;;19.46;65.83;100511.94;6699136;26;33795;-88
2022/07/08 05:02:52;;;;;;;3.50;3.08;;;;;;;19.75;65.12;100518.50;6688400;26;33605;-87
2022/07/08 05:05:56;;;;;;;3.80;3.40;;;;;;;20.11;62.31;100515.47;6698106;26;35224;-88
2022/07/08 05:09:02;;;;;;;5.20;3.50;;;;;;;18.88;66.29;100520.34;6698857;26;35595;-89
2022/07/08 05:15:41;;;;;;;4.65;3.60;;;;;;;18.89;66.70;100531.00;6702557;26;20056;-87
2022/07/08 05:18:44;;;;;;;4.72;3.85;;;;;;;18.87;67.05;100522.22;6700911;26;33795;-87
2022/07/08 05:21:46;;;;;;;4.37;3.33;;;;;;;19.29;66.23;100531.34;6701327;26;34987;-87
2022/07/08 05:24:49;;;;;;;3.40;3.10;;;;;;;20.20;62.84;100528.09;6697892;26;34101;-88
2022/07/08 05:46:51;;;;;;;4.18;2.55;;;;;;;23.93;49.60;100524.22;6690233;26;20051;-89
2022/07/08 05:49:53;;;;;;;3.17;2.50;;;;;;;25.00;45.78;100539.22;6695245;26;33538;-90
2022/07/08 05:52:56;;;;;;;8.93;2.80;;;;;;;25.05;45.35;100521.59;6683835;26;34112;-90
2022/07/08 05:55:59;;;;;;;3.70;2.87;;;;;;;23.24;50.06;100540.31;6692573;26;34333;-88
2022/07/08 05:59:02;;;;;;;3.58;2.80;;;;;;;21.78;54.56;100536.38;6691420;26;34475;-88
2022/07/08 06:02:04;;;;;;;5.12;2.80;;;;;;;22.10;53.92;100550.47;6693860;26;33986;-90
2022/07/08 06:05:07;;;;;;;4.78;2.60;;;;;;;21.71;54.92;100555.00;6685385;26;33798;-90
2022/07/08 06:08:10;;;;;;;3.37;2.78;;;;;;;21.87;55.35;100558.94;6685657;26;33803;-89
2022/07/08 06:11:13;;;;;;;6.00;2.83;;;;;;;21.97;54.94;100550.81;6694706;26;33797;-89
2022/07/08 06:18:01;;;;;;;6.40;3.15;;;;;;;23.64;50.29;100565.19;6696031;26;20030;-89
2022/07/08 06:43:34;;;;;;;4.35;2.40;;;;;;;30.35;33.90;100558.47;6693741;26;20051;-89
2022/07/08 06:46:37;;;;;;;3.40;2.15;;;;;;;30.07;34.16;100555.78;6671692;26;33186;-87
2022/07/08 06:49:39;;;;;;;2.83;2.60;;;;;;;28.06;37.60;100561.69;6670829;26;32472;-86
2022/07/08 06:52:42;;;;;;;3.12;2.20;;;;;;;28.61;37.05;100554.03;6691041;26;35398;-86
2022/07/08 06:55:44;;;;;;;2.62;2.30;;;;;;;28.24;37.89;100558.59;6691191;26;34288;-84
2022/07/08 06:58:47;;;;;;;7.47;2.97;;;;;;;26.93;40.06;100554.97;6690865;26;34072;-85
2022/07/08 07:01:49;;;;;;;4.53;2.50;;;;;;;25.96;42.30;100562.31;6694647;26;33948;-85
2022/07/08 07:04:53;;;;;;;5.18;3.00;;;;;;;26.65;40.82;100563.63;6702847;26;35020;-85
2022/07/08 07:07:55;;;;;;;6.80;3.03;;;;;;;27.34;40.57;100561.16;6708844;26;35091;-85
2022/07/08 07:10:58;;;;;;;3.75;2.80;;;;;;;27.39;39.36;100561.44;6698981;26;34908;-85
2022/07/08 07:14:01;;;;;;;3.12;2.80;;;;;;;26.83;38.50;100565.19;6690207;26;33569;-87
2022/07/08 07:17:04;;;;;;;4.97;2.70;;;;;;;27.10;39.24;100561.12;6690494;26;33939;-87
2022/07/08 07:20:07;;;;;;;2.75;2.55;;;;;;;27.24;38.00;100555.94;6691642;26;33939;-86
2022/07/08 07:23:10;;;;;;;2.97;2.78;;;;;;;27.35;38.18;100560.13;6692683;26;34263;-85
2022/07/08 07:26:13;;;;;;;3.28;2.92;;;;;;;26.96;38.03;100557.34;6689493;26;33822;-86
2022/07/08 07:29:15;;;;;;;3.53;2.70;;;;;;;26.35;40.64;100561.53;6689525;26;34383;-86
2022/07/08 07:32:18;;;;;;;3.97;2.97;;;;;;;27.34;38.38;100559.25;6689889;26;35019;-86
2022/07/08 07:35:21;;;;;;;3.78;3.22;;;;;;;27.92;36.93;100566.94;6689966;26;34046;-89
2022/07/08 07:38:24;;;;;;;4.80;3.08;;;;;;;27.11;38.69;100568.28;6669712;26;32533;-89
2022/07/08 07:41:27;;;;;;;8.50;3.20;;;;;;;28.17;36.93;100565.81;6690121;26;34461;-89
2022/07/08 07:44:31;;;;;;;3.15;2.90;;;;;;;28.21;36.16;100572.59;6690916;26;33587;-85
2022/07/08 07:47:34;;;;;;;5.28;3.37;;;;;;;28.42;35.88;100568.25;6698205;26;34073;-86
2022/07/08 07:50:36;;;;;;;4.00;3.15;;;;;;;28.46;35.28;100572.31;6702033;26;34845;-85
2022/07/08 07:53:39;;;;;;;3.10;2.90;;;;;;;28.19;35.64;100571.91;6672147;26;33233;-85
2022/07/08 07:56:42;;;;;;;3.72;3.17;;;;;;;28.10;35.03;100569.28;6690849;26;34439;-85
2022/07/08 07:59:45;;;;;;;4.65;3.10;;;;;;;28.87;35.14;100570.94;6671225;26;33987;-85
2022/07/08 08:02:47;;;;;;;5.12;3.30;;;;;;;29.37;33.73;100573.75;6695935;26;33852;-84
2022/07/08 08:05:51;;;;;;;3.92;2.92;;;;;;;29.44;32.60;100573.78;6694867;26;34840;-85
2022/07/08 08:08:56;;;;;;;3.50;3.00;;;;;;;29.30;32.93;100565.50;6695970;26;33598;-85
2022/07/08 08:11:58;;;;;;;4.72;2.90;;;;;;;29.25;32.70;100565.22;6700516;26;34084;-85
2022/07/08 08:15:01;;;;;;;12.57;3.20;;;;;;;30.02;32.50;100570.06;6694385;26;34859;-85
2022/07/08 08:18:06;;;;;;;6.68;2.95;;;;;;;29.88;31.52;100571.00;6689774;26;33940;-85
2022/07/08 08:21:08;;;;;;;5.97;3.10;;;;;;;30.50;31.03;100572.00;6689868;26;34336;-85
2022/07/08 08:24:11;;;;;;;3.72;2.85;;;;;;;30.56;31.33;100577.72;6689560;26;34055;-84
2022/07/08 08:27:14;;;;;;;4.30;2.97;;;;;;;29.96;31.12;100574.44;6690029;26;34445;-85
2022/07/08 08:30:17;;;;;;;3.67;2.85;;;;;;;30.26;30.61;100574.22;6690488;26;34452;-85
2022/07/08 08:33:19;;;;;;;6.60;2.87;;;;;;;30.06;32.42;100576.81;6689494;26;34238;-85
2022/07/08 08:36:23;;;;;;;4.55;2.50;;;;;;;30.31;31.96;100576.34;6688957;26;34194;-85
2022/07/08 08:39:25;;;;;;;3.53;3.22;;;;;;;30.69;30.14;100575.06;6689525;26;33811;-85
2022/07/08 08:42:31;;;;;;;3.72;2.78;;;;;;;30.73;30.15;100576.34;6689157;26;34292;-85
2022/07/08 08:45:34;;;;;;;4.03;2.80;;;;;;;30.49;29.26;100583.16;6689733;26;34343;-85
2022/07/08 08:48:39;;;;;;;5.50;2.67;;;;;;;30.66;29.50;100575.44;6689058;26;34148;-85
2022/07/08 08:51:44;;;;;;;2.90;2.70;;;;;;;30.55;29.67;100576.88;6689395;26;33842;-85
2022/07/08 08:54:47;;;;;;;4.57;2.90;;;;;;;30.61;30.01;100578.78;6689631;26;34575;-84
2022/07/08 08:57:50;;;;;;;3.50;2.70;;;;;;;30.96;29.69;100579.78;6689684;26;34522;-85
2022/07/08 09:00:53;;;;;;;3.20;2.90;;;;;;;31.10;29.65;100578.75;6689270;26;34021;-85
2022/07/08 09:03:59;;;;;;;4.55;2.70;;;;;;;30.69;30.41;100579.69;6672284;26;32651;-85
2022/07/08 09:07:02;;;;;;;4.40;2.65;;;;;;;31.56;30.01;100585.34;6668862;26;33915;-85
2022/07/08 09:10:15;;;;;;;2.70;2.50;;;;;;;32.34;28.78;100582.06;6689132;26;33654;-85
2022/07/08 09:13:23;;;;;;;3.80;2.50;;;;;;;31.81;29.10;100581.09;6693106;26;34765;-85
2022/07/08 09:16:26;;;;;;;5.12;2.40;;;;;;;32.39;29.14;100587.75;6690894;26;33928;-85
2022/07/08 09:19:29;;;;;;;3.72;2.60;;;;;;;32.45;27.46;100594.31;6698495;26;34012;-85
2022/07/08 09:22:31;;;;;;;5.28;2.78;;;;;;;32.32;27.90;100584.19;6696621;26;34886;-85
2022/07/08 09:25:34;;;;;;;3.30;2.70;;;;;;;32.59;26.79;100584.12;6697724;26;34035;-85
2022/07/08 09:28:38;;;;;;;2.70;2.50;;;;;;;32.59;26.83;100586.84;6692709;26;33870;-85
2022/07/08 09:31:41;;;;;;;2.78;2.58;;;;;;;32.88;26.47;100577.19;6692627;26;34073;-85
2022/07/08 09:34:43;;;;;;;2.75;2.55;;;;;;;32.82;26.89;100580.00;6690874;26;33939;-85
2022/07/08 09:37:50;;;;;;;2.72;2.53;;;;;;;33.45;26.69;100581.06;6691368;26;33998;-85
2022/07/08 09:40:57;;;;;;;2.87;2.67;;;;;;;33.97;25.57;100580.81;6692826;26;34096;-89
2022/07/08 09:44:00;;;;;;;2.40;2.30;;;;;;;33.45;25.19;100578.31;6708258;26;34925;-91
2022/07/08 09:47:13;;;;;;;4.95;2.60;;;;;;;33.71;25.36;100574.53;6707853;26;34896;-91
2022/07/08 09:50:16;;;;;;;2.97;2.30;;;;;;;34.04;24.82;100571.69;6688007;26;33707;-88
2022/07/08 09:53:22;;;;;;;5.22;2.78;;;;;;;32.46;26.22;100582.25;6708506;26;34962;-87
2022/07/08 09:56:26;;;;;;;3.53;2.30;;;;;;;33.53;25.77;100572.56;6704924;26;34775;-88
2022/07/08 09:59:30;;;;;;;2.90;2.50;;;;;;;33.59;25.57;100573.59;6692040;26;34251;-88
2022/07/08 10:02:34;;;;;;;2.90;2.60;;;;;;;34.03;24.69;100568.03;6692548;26;34612;-88
2022/07/08 10:05:37;;;;;;;3.12;2.65;;;;;;;33.91;25.01;100580.88;6691758;26;34481;-88
2022/07/08 10:08:40;;;;;;;3.78;2.53;;;;;;;34.01;24.62;100583.94;6690767;26;34520;-87
2022/07/08 10:11:43;;;;;;;4.32;2.40;;;;;;;32.79;25.20;100573.84;6691498;26;33951;-87
2022/07/08 10:14:48;;;;;;;2.80;2.60;;;;;;;33.95;24.52;100584.88;6693393;26;34388;-87
2022/07/08 10:17:51;;;;;;;4.53;2.70;;;;;;;33.72;24.44;100591.84;6694903;26;34689;-86
2022/07/08 10:20:56;;;;;;;5.15;2.75;;;;;;;33.66;24.22;100579.84;6693933;26;34674;-88
2022/07/08 10:23:59;;;;;;;7.30;2.92;;;;;;;34.27;23.60;100595.75;6672942;26;32938;-85
2022/07/08 10:27:02;;;;;;;6.72;3.00;;;;;;;34.83;22.80;100587.44;6672309;26;33613;-84
2022/07/08 10:30:43;;;;;;;3.00;2.25;;;;;;;33.06;24.58;100590.22;6693362;26;34188;-85
2022/07/08 10:33:46;;;;;;;2.60;2.40;;;;;;;35.23;22.22;100583.28;6704553;26;33724;-86
2022/07/08 10:36:51;;;;;;;4.93;2.35;;;;;;;34.31;23.07;100587.88;6710268;26;35268;-86
2022/07/08 10:39:53;;;;;;;3.72;2.37;;;;;;;34.50;23.37;100592.28;6709245;26;35200;-86
2022/07/08 10:43:35;;;;;;;3.50;2.47;;;;;;;35.56;22.67;100594.84;6709793;26;35231;-87
2022/07/08 10:46:50;;;;;;;2.60;2.40;;;;;;;34.41;23.04;100594.56;6666483;26;33744;-90
2022/07/08 10:50:08;;;;;;;3.05;2.62;;;;;;;34.07;24.74;100601.47;6690759;26;34449;-87
2022/07/08 10:53:11;;;;;;;2.55;2.37;;;;;;;32.61;24.86;100593.81;6691246;26;34813;-86
2022/07/08 10:56:50;;;;;;;7.15;2.42;;;;;;;32.22;25.84;100590.97;6691099;26;33903;-86
2022/07/08 11:00:01;;;;;;;;;;;;;;;31.73;25.98;100593.97;6665624;26;32470;-87
2022/07/08 11:03:08;;;;;;;4.72;2.78;;;;;;;31.96;26.55;100600.94;6691257;26;34790;-86
2022/07/08 11:06:33;;;;;;;5.67;2.83;;;;;;;31.14;28.07;100604.69;6694118;26;33781;-86
2022/07/08 11:09:39;;;;;;;2.85;2.65;;;;;;;30.86;28.21;100605.66;6685412;26;32786;-87
2022/07/08 11:12:44;;;;;;;5.35;2.60;;;;;;;30.26;28.80;100609.78;6685910;26;32394;-86
2022/07/08 11:15:48;;;;;;;7.12;2.90;;;;;;;29.67;29.60;100606.37;6694672;26;34889;-86
2022/07/08 11:18:53;;;;;;;4.50;3.00;;;;;;;29.39;30.77;100604.44;6703513;26;34617;-86
2022/07/08 11:22:02;;;;;;;5.43;2.92;;;;;;;29.19;30.80;100610.56;6702588;26;33789;-86
2022/07/08 11:25:26;;;;;;;3.10;2.80;;;;;;;28.73;31.31;100613.56;6691504;26;34674;-86
2022/07/08 11:28:29;;;;;;;3.20;2.62;;;;;;;28.74;31.11;100626.16;6694055;26;33554;-86
2022/07/08 11:31:33;;;;;;;4.05;2.92;;;;;;;28.67;31.36;100617.06;6692311;26;34979;-87
2022/07/08 11:34:35;;;;;;;3.37;2.90;;;;;;;28.30;32.09;100617.00;6690200;26;34172;-87
2022/07/08 11:37:44;;;;;;;2.78;2.58;;;;;;;29.05;31.39;100614.16;6671341;26;34257;-87
2022/07/08 11:40:48;;;;;;;3.40;3.10;;;;;;;28.39;31.78;100615.88;6689942;26;33706;-87
2022/07/08 11:43:51;;;;;;;4.07;3.00;;;;;;;28.59;31.74;100618.88;6690080;26;34243;-86
2022/07/08 11:46:55;;;;;;;4.47;2.70;;;;;;;28.21;32.07;100614.31;6689520;26;34180;-86
2022/07/08 11:49:57;;;;;;;3.62;2.72;;;;;;;28.14;32.01;100618.00;6689974;26;34304;-87
2022/07/08 11:53:00;;;;;;;2.75;2.55;;;;;;;27.89;32.86;100615.50;6689469;26;33826;-86
2022/07/08 11:56:03;;;;;;;5.62;2.90;;;;;;;28.04;31.44;100613.66;6671256;26;32849;-86
2022/07/08 11:59:26;;;;;;;2.75;2.55;;;;;;;28.12;32.53;100610.84;6689889;26;34451;-86
2022/07/08 12:02:29;;;;;;;2.55;2.40;;;;;;;28.42;30.88;100609.19;6669711;26;32823;-86
2022/07/08 12:05:39;;;;;;;3.15;2.67;;;;;;;28.24;31.18;100605.81;6690117;26;34365;-87
2022/07/08 12:08:45;;;;;;;5.10;2.90;;;;;;;28.38;31.15;100608.72;6689643;26;34352;-87
2022/07/08 12:11:50;;;;;;;2.75;2.17;;;;;;;28.88;31.15;100606.25;6690306;26;33944;-87
2022/07/08 12:14:53;;;;;;;3.67;2.30;;;;;;;29.01;29.61;100607.44;6689744;26;33849;-87
2022/07/08 12:17:57;;;;;;;2.55;2.12;;;;;;;29.05;28.00;100601.38;6669258;26;33724;-87
2022/07/08 12:21:16;;;;;;;3.00;2.30;;;;;;;29.24;28.15;100592.72;6689577;26;34032;-87
2022/07/08 12:24:24;;;;;;;3.70;2.67;;;;;;;29.36;27.88;100593.06;6689475;26;34487;-87
2022/07/08 12:27:30;;;;;;;5.40;2.65;;;;;;;29.76;27.88;100598.88;6688873;26;34303;-86
2022/07/08 12:30:33;;;;;;;3.00;2.70;;;;;;;30.10;27.19;100588.22;6688783;26;35170;-86
2022/07/08 12:33:35;;;;;;;2.70;2.50;;;;;;;29.56;28.27;100596.00;6688276;26;34742;-87
